Clines Corners, New Mexico
Current Conditions -  °F | °C
As of 2:53 PM on Friday 24 Oct 2014 (Local Time) from KCQC Reporting Station
Clear Clear  
Wind Chill: 75°   Ceiling: Unl
Heat Index: 75°   Visibility: 10mi
Dew Point: 21°   Wind: 21mph
Humidity: 13%   Direction: 290°WNW
Pressure: 30.3"   Gusts: 26mph
Location:  35.01°N, 105.67°W
Report Text: KCQC 242053Z AUTO 29018G23KT 10SM CLR 24/M06 A3030 RMK AO2 SLP178 T02391061 56016
Loading
Personal Weather Stations






























Interactive Weather Map
Tropical Storm Tracking
New forecast layout! Learn more

10-Day Weather Forecast

Advertisements
Track Severe Weather on mobile